sensor_id;sensor_type;location;lat;lon;timestamp;P1;durP1;ratioP1;P2;durP2;ratioP2
29570;SDS011;16814;52.118;11.436;2023-03-21T00:00:16;24.40;;;15.73;;
29570;SDS011;16814;52.118;11.436;2023-03-21T00:02:42;22.75;;;15.75;;
29570;SDS011;16814;52.118;11.436;2023-03-21T00:05:08;24.58;;;15.02;;
29570;SDS011;16814;52.118;11.436;2023-03-21T00:07:34;23.37;;;14.77;;
29570;SDS011;16814;52.118;11.436;2023-03-21T00:10:00;24.17;;;15.02;;
29570;SDS011;16814;52.118;11.436;2023-03-21T00:12:25;23.70;;;14.57;;
29570;SDS011;16814;52.118;11.436;2023-03-21T00:14:51;20.85;;;14.13;;
29570;SDS011;16814;52.118;11.436;2023-03-21T00:17:18;22.23;;;14.35;;
29570;SDS011;16814;52.118;11.436;2023-03-21T00:19:46;19.27;;;13.57;;
29570;SDS011;16814;52.118;11.436;2023-03-21T00:22:12;21.50;;;13.25;;
29570;SDS011;16814;52.118;11.436;2023-03-21T00:24:38;20.30;;;13.80;;
29570;SDS011;16814;52.118;11.436;2023-03-21T00:27:04;17.98;;;13.25;;
29570;SDS011;16814;52.118;11.436;2023-03-21T00:29:31;22.40;;;14.77;;
29570;SDS011;16814;52.118;11.436;2023-03-21T00:31:56;19.17;;;13.48;;
29570;SDS011;16814;52.118;11.436;2023-03-21T00:34:22;24.33;;;14.03;;
29570;SDS011;16814;52.118;11.436;2023-03-21T00:36:47;20.95;;;13.70;;
29570;SDS011;16814;52.118;11.436;2023-03-21T00:39:13;22.77;;;13.73;;
29570;SDS011;16814;52.118;11.436;2023-03-21T00:41:39;22.52;;;13.73;;
29570;SDS011;16814;52.118;11.436;2023-03-21T00:44:05;19.15;;;13.15;;
29570;SDS011;16814;52.118;11.436;2023-03-21T00:46:31;22.70;;;14.15;;
29570;SDS011;16814;52.118;11.436;2023-03-21T00:48:57;22.53;;;13.50;;
29570;SDS011;16814;52.118;11.436;2023-03-21T00:51:23;18.75;;;12.65;;
29570;SDS011;16814;52.118;11.436;2023-03-21T00:53:52;18.60;;;12.70;;
29570;SDS011;16814;52.118;11.436;2023-03-21T00:56:19;20.60;;;12.55;;
29570;SDS011;16814;52.118;11.436;2023-03-21T00:58:44;21.37;;;12.93;;
29570;SDS011;16814;52.118;11.436;2023-03-21T01:01:10;20.30;;;13.40;;
29570;SDS011;16814;52.118;11.436;2023-03-21T01:03:35;20.63;;;13.40;;
29570;SDS011;16814;52.118;11.436;2023-03-21T01:06:07;20.40;;;13.27;;
29570;SDS011;16814;52.118;11.436;2023-03-21T01:08:38;21.63;;;13.10;;
29570;SDS011;16814;52.118;11.436;2023-03-21T01:11:10;22.60;;;12.73;;
29570;SDS011;16814;52.118;11.436;2023-03-21T01:13:41;23.48;;;14.15;;
29570;SDS011;16814;52.118;11.436;2023-03-21T01:16:07;21.00;;;12.70;;
29570;SDS011;16814;52.118;11.436;2023-03-21T01:18:36;20.92;;;13.75;;
29570;SDS011;16814;52.118;11.436;2023-03-21T01:21:05;19.60;;;12.85;;
29570;SDS011;16814;52.118;11.436;2023-03-21T01:23:33;19.43;;;13.17;;
29570;SDS011;16814;52.118;11.436;2023-03-21T01:25:59;19.70;;;13.00;;
29570;SDS011;16814;52.118;11.436;2023-03-21T01:28:25;18.95;;;12.70;;
29570;SDS011;16814;52.118;11.436;2023-03-21T01:30:52;24.80;;;13.07;;
29570;SDS011;16814;52.118;11.436;2023-03-21T01:33:18;18.35;;;12.45;;
29570;SDS011;16814;52.118;11.436;2023-03-21T01:35:44;20.05;;;12.80;;
29570;SDS011;16814;52.118;11.436;2023-03-21T01:38:10;19.73;;;12.52;;
29570;SDS011;16814;52.118;11.436;2023-03-21T01:40:37;20.50;;;12.65;;
29570;SDS011;16814;52.118;11.436;2023-03-21T01:43:03;21.10;;;12.80;;
29570;SDS011;16814;52.118;11.436;2023-03-21T01:49:22;19.58;;;13.25;;
29570;SDS011;16814;52.118;11.436;2023-03-21T01:51:52;24.90;;;13.60;;
29570;SDS011;16814;52.118;11.436;2023-03-21T01:54:25;19.73;;;13.13;;
29570;SDS011;16814;52.118;11.436;2023-03-21T01:56:56;22.10;;;13.75;;
29570;SDS011;16814;52.118;11.436;2023-03-21T01:59:27;20.48;;;13.40;;
29570;SDS011;16814;52.118;11.436;2023-03-21T02:01:59;21.67;;;14.02;;
29570;SDS011;16814;52.118;11.436;2023-03-21T02:04:31;23.48;;;13.75;;
29570;SDS011;16814;52.118;11.436;2023-03-21T02:07:04;20.88;;;13.82;;
29570;SDS011;16814;52.118;11.436;2023-03-21T02:09:37;25.98;;;15.32;;
29570;SDS011;16814;52.118;11.436;2023-03-21T02:12:06;20.95;;;14.20;;
29570;SDS011;16814;52.118;11.436;2023-03-21T02:14:33;21.92;;;14.25;;
29570;SDS011;16814;52.118;11.436;2023-03-21T02:17:11;22.58;;;14.73;;
29570;SDS011;16814;52.118;11.436;2023-03-21T02:25:06;23.58;;;14.90;;
29570;SDS011;16814;52.118;11.436;2023-03-21T02:27:51;20.40;;;13.82;;
29570;SDS011;16814;52.118;11.436;2023-03-21T02:38:22;21.30;;;14.52;;
29570;SDS011;16814;52.118;11.436;2023-03-21T02:41:12;20.48;;;14.35;;
29570;SDS011;16814;52.118;11.436;2023-03-21T02:43:45;20.23;;;14.13;;
29570;SDS011;16814;52.118;11.436;2023-03-21T02:46:29;26.92;;;14.13;;
29570;SDS011;16814;52.118;11.436;2023-03-21T02:49:15;22.57;;;13.73;;
29570;SDS011;16814;52.118;11.436;2023-03-21T02:51:46;21.23;;;14.82;;
29570;SDS011;16814;52.118;11.436;2023-03-21T02:54:14;21.90;;;14.40;;
29570;SDS011;16814;52.118;11.436;2023-03-21T02:56:43;22.13;;;14.10;;
29570;SDS011;16814;52.118;11.436;2023-03-21T02:59:11;20.02;;;14.43;;
29570;SDS011;16814;52.118;11.436;2023-03-21T03:01:38;22.70;;;14.88;;
29570;SDS011;16814;52.118;11.436;2023-03-21T03:04:15;26.43;;;14.43;;
29570;SDS011;16814;52.118;11.436;2023-03-21T03:06:45;20.85;;;14.05;;
29570;SDS011;16814;52.118;11.436;2023-03-21T03:12:12;23.77;;;15.57;;
29570;SDS011;16814;52.118;11.436;2023-03-21T03:15:01;24.02;;;15.38;;
29570;SDS011;16814;52.118;11.436;2023-03-21T03:20:24;21.20;;;14.63;;
29570;SDS011;16814;52.118;11.436;2023-03-21T03:22:59;29.03;;;15.07;;
29570;SDS011;16814;52.118;11.436;2023-03-21T03:26:13;22.63;;;15.53;;
29570;SDS011;16814;52.118;11.436;2023-03-21T03:28:43;20.37;;;14.47;;
29570;SDS011;16814;52.118;11.436;2023-03-21T03:31:12;23.58;;;15.30;;
29570;SDS011;16814;52.118;11.436;2023-03-21T03:33:43;24.70;;;15.85;;
29570;SDS011;16814;52.118;11.436;2023-03-21T03:36:12;25.20;;;15.63;;
29570;SDS011;16814;52.118;11.436;2023-03-21T03:38:39;24.67;;;16.25;;
29570;SDS011;16814;52.118;11.436;2023-03-21T03:41:09;23.88;;;16.55;;
29570;SDS011;16814;52.118;11.436;2023-03-21T03:43:44;24.60;;;16.63;;
29570;SDS011;16814;52.118;11.436;2023-03-21T03:46:17;25.23;;;16.95;;
29570;SDS011;16814;52.118;11.436;2023-03-21T03:48:51;25.60;;;16.27;;
29570;SDS011;16814;52.118;11.436;2023-03-21T03:51:35;23.85;;;16.90;;
29570;SDS011;16814;52.118;11.436;2023-03-21T03:54:09;28.45;;;16.95;;
29570;SDS011;16814;52.118;11.436;2023-03-21T03:56:41;25.23;;;17.23;;
29570;SDS011;16814;52.118;11.436;2023-03-21T03:59:07;24.90;;;17.58;;
29570;SDS011;16814;52.118;11.436;2023-03-21T04:01:33;25.87;;;17.10;;
29570;SDS011;16814;52.118;11.436;2023-03-21T04:03:59;25.30;;;17.30;;
29570;SDS011;16814;52.118;11.436;2023-03-21T04:06:25;27.90;;;17.83;;
29570;SDS011;16814;52.118;11.436;2023-03-21T04:08:53;27.30;;;17.97;;
29570;SDS011;16814;52.118;11.436;2023-03-21T04:11:20;27.27;;;18.15;;
29570;SDS011;16814;52.118;11.436;2023-03-21T04:13:46;26.50;;;18.15;;
29570;SDS011;16814;52.118;11.436;2023-03-21T04:16:12;29.92;;;18.73;;
29570;SDS011;16814;52.118;11.436;2023-03-21T04:18:38;26.10;;;18.20;;
29570;SDS011;16814;52.118;11.436;2023-03-21T04:21:08;29.30;;;18.73;;
29570;SDS011;16814;52.118;11.436;2023-03-21T04:23:36;26.97;;;18.13;;
29570;SDS011;16814;52.118;11.436;2023-03-21T04:26:02;29.30;;;18.52;;
29570;SDS011;16814;52.118;11.436;2023-03-21T04:28:29;27.38;;;18.48;;
29570;SDS011;16814;52.118;11.436;2023-03-21T04:30:54;30.40;;;19.37;;
29570;SDS011;16814;52.118;11.436;2023-03-21T04:33:21;28.55;;;18.48;;
29570;SDS011;16814;52.118;11.436;2023-03-21T04:35:50;28.55;;;18.67;;
29570;SDS011;16814;52.118;11.436;2023-03-21T04:38:20;29.55;;;18.40;;
29570;SDS011;16814;52.118;11.436;2023-03-21T04:40:50;26.63;;;18.38;;
29570;SDS011;16814;52.118;11.436;2023-03-21T04:43:16;26.52;;;18.35;;
29570;SDS011;16814;52.118;11.436;2023-03-21T04:45:42;27.00;;;17.73;;
29570;SDS011;16814;52.118;11.436;2023-03-21T04:48:08;29.73;;;18.38;;
29570;SDS011;16814;52.118;11.436;2023-03-21T04:50:33;33.10;;;18.50;;
29570;SDS011;16814;52.118;11.436;2023-03-21T04:52:59;29.47;;;19.10;;
29570;SDS011;16814;52.118;11.436;2023-03-21T04:55:24;25.10;;;17.50;;
29570;SDS011;16814;52.118;11.436;2023-03-21T04:57:51;27.58;;;17.67;;
29570;SDS011;16814;52.118;11.436;2023-03-21T05:00:17;29.35;;;18.27;;
29570;SDS011;16814;52.118;11.436;2023-03-21T05:02:43;26.93;;;17.80;;
29570;SDS011;16814;52.118;11.436;2023-03-21T05:05:08;29.30;;;17.55;;
29570;SDS011;16814;52.118;11.436;2023-03-21T05:07:39;28.80;;;17.52;;
29570;SDS011;16814;52.118;11.436;2023-03-21T05:10:07;22.98;;;16.35;;
29570;SDS011;16814;52.118;11.436;2023-03-21T05:12:34;23.75;;;16.35;;
29570;SDS011;16814;52.118;11.436;2023-03-21T05:14:59;24.53;;;16.77;;
29570;SDS011;16814;52.118;11.436;2023-03-21T05:17:25;24.35;;;15.98;;
29570;SDS011;16814;52.118;11.436;2023-03-21T05:19:52;25.60;;;17.00;;
29570;SDS011;16814;52.118;11.436;2023-03-21T05:22:20;25.83;;;15.82;;
29570;SDS011;16814;52.118;11.436;2023-03-21T05:24:48;27.88;;;16.55;;
29570;SDS011;16814;52.118;11.436;2023-03-21T05:27:18;23.77;;;15.40;;
29570;SDS011;16814;52.118;11.436;2023-03-21T05:30:09;24.90;;;16.50;;
29570;SDS011;16814;52.118;11.436;2023-03-21T05:32:36;24.60;;;16.00;;
29570;SDS011;16814;52.118;11.436;2023-03-21T05:35:02;23.90;;;16.00;;
29570;SDS011;16814;52.118;11.436;2023-03-21T05:37:28;22.88;;;16.40;;
29570;SDS011;16814;52.118;11.436;2023-03-21T05:39:54;24.35;;;15.45;;
29570;SDS011;16814;52.118;11.436;2023-03-21T05:42:20;26.10;;;16.60;;
29570;SDS011;16814;52.118;11.436;2023-03-21T05:44:46;27.50;;;15.85;;
29570;SDS011;16814;52.118;11.436;2023-03-21T05:47:12;23.63;;;15.68;;
29570;SDS011;16814;52.118;11.436;2023-03-21T05:49:40;25.55;;;15.75;;
29570;SDS011;16814;52.118;11.436;2023-03-21T05:52:06;29.98;;;15.73;;
29570;SDS011;16814;52.118;11.436;2023-03-21T05:54:32;26.07;;;16.10;;
29570;SDS011;16814;52.118;11.436;2023-03-21T05:56:58;26.40;;;16.33;;
29570;SDS011;16814;52.118;11.436;2023-03-21T05:59:23;23.80;;;15.35;;
29570;SDS011;16814;52.118;11.436;2023-03-21T06:01:49;24.60;;;15.73;;
29570;SDS011;16814;52.118;11.436;2023-03-21T06:04:14;23.93;;;15.10;;
29570;SDS011;16814;52.118;11.436;2023-03-21T06:06:40;24.70;;;15.75;;
29570;SDS011;16814;52.118;11.436;2023-03-21T06:09:06;25.57;;;16.80;;
29570;SDS011;16814;52.118;11.436;2023-03-21T06:11:32;23.05;;;14.77;;
29570;SDS011;16814;52.118;11.436;2023-03-21T06:14:00;25.20;;;15.48;;
29570;SDS011;16814;52.118;11.436;2023-03-21T06:16:26;22.55;;;14.85;;
29570;SDS011;16814;52.118;11.436;2023-03-21T06:18:52;21.38;;;15.15;;
29570;SDS011;16814;52.118;11.436;2023-03-21T06:21:18;23.17;;;14.43;;
29570;SDS011;16814;52.118;11.436;2023-03-21T06:23:45;21.30;;;14.77;;
29570;SDS011;16814;52.118;11.436;2023-03-21T06:26:15;22.17;;;14.63;;
29570;SDS011;16814;52.118;11.436;2023-03-21T06:28:43;20.92;;;15.00;;
29570;SDS011;16814;52.118;11.436;2023-03-21T06:31:09;23.30;;;15.03;;
29570;SDS011;16814;52.118;11.436;2023-03-21T06:33:35;27.83;;;14.90;;
29570;SDS011;16814;52.118;11.436;2023-03-21T06:36:00;24.67;;;14.37;;
29570;SDS011;16814;52.118;11.436;2023-03-21T06:38:26;22.07;;;14.63;;
29570;SDS011;16814;52.118;11.436;2023-03-21T06:40:52;21.85;;;13.93;;
29570;SDS011;16814;52.118;11.436;2023-03-21T06:43:18;22.25;;;13.80;;
29570;SDS011;16814;52.118;11.436;2023-03-21T06:45:43;18.97;;;13.73;;
29570;SDS011;16814;52.118;11.436;2023-03-21T06:48:09;21.92;;;13.52;;
29570;SDS011;16814;52.118;11.436;2023-03-21T06:50:35;19.93;;;13.47;;
29570;SDS011;16814;52.118;11.436;2023-03-21T06:53:01;19.40;;;13.13;;
29570;SDS011;16814;52.118;11.436;2023-03-21T06:55:26;20.60;;;13.40;;
29570;SDS011;16814;52.118;11.436;2023-03-21T06:57:53;23.42;;;13.30;;
29570;SDS011;16814;52.118;11.436;2023-03-21T07:00:20;18.05;;;13.15;;
29570;SDS011;16814;52.118;11.436;2023-03-21T07:02:46;26.63;;;13.63;;
29570;SDS011;16814;52.118;11.436;2023-03-21T07:05:12;19.70;;;12.35;;
29570;SDS011;16814;52.118;11.436;2023-03-21T07:07:38;20.17;;;12.18;;
29570;SDS011;16814;52.118;11.436;2023-03-21T07:10:05;18.52;;;12.05;;
29570;SDS011;16814;52.118;11.436;2023-03-21T07:12:31;17.65;;;11.35;;
29570;SDS011;16814;52.118;11.436;2023-03-21T07:14:58;18.23;;;11.05;;
29570;SDS011;16814;52.118;11.436;2023-03-21T07:17:25;16.10;;;11.40;;
29570;SDS011;16814;52.118;11.436;2023-03-21T07:19:50;15.00;;;11.00;;
29570;SDS011;16814;52.118;11.436;2023-03-21T07:22:16;18.23;;;10.60;;
29570;SDS011;16814;52.118;11.436;2023-03-21T07:24:42;15.60;;;10.70;;
29570;SDS011;16814;52.118;11.436;2023-03-21T07:27:08;17.52;;;10.75;;
29570;SDS011;16814;52.118;11.436;2023-03-21T07:29:33;17.57;;;10.73;;
29570;SDS011;16814;52.118;11.436;2023-03-21T07:31:59;14.30;;;9.65;;
29570;SDS011;16814;52.118;11.436;2023-03-21T07:34:24;14.77;;;10.20;;
29570;SDS011;16814;52.118;11.436;2023-03-21T07:36:51;17.27;;;10.30;;
29570;SDS011;16814;52.118;11.436;2023-03-21T07:39:16;16.23;;;9.88;;
29570;SDS011;16814;52.118;11.436;2023-03-21T07:41:44;15.02;;;9.93;;
29570;SDS011;16814;52.118;11.436;2023-03-21T07:44:10;16.75;;;10.07;;
29570;SDS011;16814;52.118;11.436;2023-03-21T07:46:35;16.00;;;9.67;;
29570;SDS011;16814;52.118;11.436;2023-03-21T07:49:01;16.23;;;10.50;;
29570;SDS011;16814;52.118;11.436;2023-03-21T07:51:26;19.15;;;10.32;;
29570;SDS011;16814;52.118;11.436;2023-03-21T07:53:52;17.30;;;10.40;;
29570;SDS011;16814;52.118;11.436;2023-03-21T07:56:17;18.97;;;10.10;;
29570;SDS011;16814;52.118;11.436;2023-03-21T07:58:43;18.08;;;10.65;;
29570;SDS011;16814;52.118;11.436;2023-03-21T08:01:08;16.17;;;9.87;;
29570;SDS011;16814;52.118;11.436;2023-03-21T08:03:34;18.50;;;9.50;;
29570;SDS011;16814;52.118;11.436;2023-03-21T08:06:00;17.67;;;9.70;;
29570;SDS011;16814;52.118;11.436;2023-03-21T08:08:25;17.20;;;9.50;;
29570;SDS011;16814;52.118;11.436;2023-03-21T08:10:51;15.52;;;9.13;;
29570;SDS011;16814;52.118;11.436;2023-03-21T08:13:17;15.00;;;8.83;;
29570;SDS011;16814;52.118;11.436;2023-03-21T08:15:42;13.70;;;8.68;;
29570;SDS011;16814;52.118;11.436;2023-03-21T08:18:08;14.93;;;9.17;;
29570;SDS011;16814;52.118;11.436;2023-03-21T08:20:35;17.05;;;9.63;;
29570;SDS011;16814;52.118;11.436;2023-03-21T08:23:00;19.27;;;10.07;;
29570;SDS011;16814;52.118;11.436;2023-03-21T08:25:27;16.35;;;10.00;;
29570;SDS011;16814;52.118;11.436;2023-03-21T08:27:53;19.70;;;10.07;;
29570;SDS011;16814;52.118;11.436;2023-03-21T08:30:20;16.77;;;10.57;;
29570;SDS011;16814;52.118;11.436;2023-03-21T08:32:48;17.27;;;9.95;;
29570;SDS011;16814;52.118;11.436;2023-03-21T08:35:14;15.73;;;9.90;;
29570;SDS011;16814;52.118;11.436;2023-03-21T08:37:42;15.10;;;9.90;;
29570;SDS011;16814;52.118;11.436;2023-03-21T08:40:12;15.47;;;10.03;;
29570;SDS011;16814;52.118;11.436;2023-03-21T08:42:40;18.70;;;10.05;;
29570;SDS011;16814;52.118;11.436;2023-03-21T08:45:06;17.00;;;9.52;;
29570;SDS011;16814;52.118;11.436;2023-03-21T08:47:32;14.70;;;9.52;;
29570;SDS011;16814;52.118;11.436;2023-03-21T08:49:58;19.13;;;9.85;;
29570;SDS011;16814;52.118;11.436;2023-03-21T08:52:24;14.33;;;9.43;;
29570;SDS011;16814;52.118;11.436;2023-03-21T08:54:51;18.98;;;10.30;;
29570;SDS011;16814;52.118;11.436;2023-03-21T08:57:17;18.58;;;9.65;;
29570;SDS011;16814;52.118;11.436;2023-03-21T08:59:42;17.00;;;9.40;;
29570;SDS011;16814;52.118;11.436;2023-03-21T09:02:09;14.05;;;9.02;;
29570;SDS011;16814;52.118;11.436;2023-03-21T09:04:37;17.70;;;9.30;;
29570;SDS011;16814;52.118;11.436;2023-03-21T09:07:03;14.13;;;9.10;;
29570;SDS011;16814;52.118;11.436;2023-03-21T09:09:30;16.05;;;9.43;;
29570;SDS011;16814;52.118;11.436;2023-03-21T09:11:55;16.53;;;8.67;;
29570;SDS011;16814;52.118;11.436;2023-03-21T09:14:21;14.02;;;9.15;;
29570;SDS011;16814;52.118;11.436;2023-03-21T09:16:46;16.40;;;8.70;;
29570;SDS011;16814;52.118;11.436;2023-03-21T09:19:12;16.33;;;9.13;;
29570;SDS011;16814;52.118;11.436;2023-03-21T09:21:38;12.93;;;8.30;;
29570;SDS011;16814;52.118;11.436;2023-03-21T09:24:04;11.88;;;7.70;;
29570;SDS011;16814;52.118;11.436;2023-03-21T09:26:30;12.93;;;7.65;;
29570;SDS011;16814;52.118;11.436;2023-03-21T09:28:57;14.93;;;7.53;;
29570;SDS011;16814;52.118;11.436;2023-03-21T09:31:25;12.48;;;7.53;;
29570;SDS011;16814;52.118;11.436;2023-03-21T09:33:52;13.55;;;7.93;;
29570;SDS011;16814;52.118;11.436;2023-03-21T09:36:20;12.37;;;7.77;;
29570;SDS011;16814;52.118;11.436;2023-03-21T09:38:48;13.63;;;7.93;;
29570;SDS011;16814;52.118;11.436;2023-03-21T09:41:17;12.82;;;7.85;;
29570;SDS011;16814;52.118;11.436;2023-03-21T09:52:03;12.77;;;7.63;;
29570;SDS011;16814;52.118;11.436;2023-03-21T09:54:37;13.30;;;7.65;;
29570;SDS011;16814;52.118;11.436;2023-03-21T09:59:55;15.77;;;7.88;;
29570;SDS011;16814;52.118;11.436;2023-03-21T10:02:39;11.95;;;7.13;;
29570;SDS011;16814;52.118;11.436;2023-03-21T10:07:43;15.10;;;7.45;;
29570;SDS011;16814;52.118;11.436;2023-03-21T10:10:16;12.10;;;7.13;;
29570;SDS011;16814;52.118;11.436;2023-03-21T10:12:46;14.18;;;7.88;;
29570;SDS011;16814;52.118;11.436;2023-03-21T10:15:15;14.05;;;7.60;;
29570;SDS011;16814;52.118;11.436;2023-03-21T10:17:45;12.57;;;7.15;;
29570;SDS011;16814;52.118;11.436;2023-03-21T10:20:20;12.50;;;7.65;;
29570;SDS011;16814;52.118;11.436;2023-03-21T10:22:51;13.47;;;7.97;;
29570;SDS011;16814;52.118;11.436;2023-03-21T10:25:20;12.10;;;7.47;;
29570;SDS011;16814;52.118;11.436;2023-03-21T10:27:50;14.68;;;8.05;;
29570;SDS011;16814;52.118;11.436;2023-03-21T10:30:25;12.63;;;7.35;;
29570;SDS011;16814;52.118;11.436;2023-03-21T10:32:56;10.90;;;7.63;;
29570;SDS011;16814;52.118;11.436;2023-03-21T10:35:28;11.32;;;7.10;;
29570;SDS011;16814;52.118;11.436;2023-03-21T10:37:57;14.38;;;7.18;;
29570;SDS011;16814;52.118;11.436;2023-03-21T10:40:25;10.00;;;6.35;;
29570;SDS011;16814;52.118;11.436;2023-03-21T10:42:53;11.60;;;6.85;;
29570;SDS011;16814;52.118;11.436;2023-03-21T10:45:21;12.27;;;6.93;;
29570;SDS011;16814;52.118;11.436;2023-03-21T10:47:47;10.80;;;6.63;;
29570;SDS011;16814;52.118;11.436;2023-03-21T10:50:17;9.57;;;6.22;;
29570;SDS011;16814;52.118;11.436;2023-03-21T10:52:52;8.82;;;6.38;;
29570;SDS011;16814;52.118;11.436;2023-03-21T10:55:31;10.48;;;6.05;;
29570;SDS011;16814;52.118;11.436;2023-03-21T10:58:00;12.25;;;6.07;;
29570;SDS011;16814;52.118;11.436;2023-03-21T11:00:29;9.68;;;5.90;;
29570;SDS011;16814;52.118;11.436;2023-03-21T11:03:00;9.50;;;5.72;;
29570;SDS011;16814;52.118;11.436;2023-03-21T11:05:37;11.15;;;5.80;;
29570;SDS011;16814;52.118;11.436;2023-03-21T11:08:06;8.30;;;6.13;;
29570;SDS011;16814;52.118;11.436;2023-03-21T11:10:37;8.90;;;5.70;;
29570;SDS011;16814;52.118;11.436;2023-03-21T11:13:19;7.70;;;5.85;;
29570;SDS011;16814;52.118;11.436;2023-03-21T11:15:54;8.00;;;5.00;;
29570;SDS011;16814;52.118;11.436;2023-03-21T11:18:25;7.65;;;5.50;;
29570;SDS011;16814;52.118;11.436;2023-03-21T11:20:56;8.27;;;5.05;;
29570;SDS011;16814;52.118;11.436;2023-03-21T11:23:32;8.65;;;4.70;;
29570;SDS011;16814;52.118;11.436;2023-03-21T11:26:00;8.00;;;5.00;;
29570;SDS011;16814;52.118;11.436;2023-03-21T11:28:36;6.43;;;4.60;;
29570;SDS011;16814;52.118;11.436;2023-03-21T11:31:04;6.93;;;4.70;;
29570;SDS011;16814;52.118;11.436;2023-03-21T11:33:41;8.40;;;5.17;;
29570;SDS011;16814;52.118;11.436;2023-03-21T11:38:43;8.93;;;5.07;;
29570;SDS011;16814;52.118;11.436;2023-03-21T11:41:26;10.52;;;5.80;;
29570;SDS011;16814;52.118;11.436;2023-03-21T11:43:55;7.82;;;5.20;;
29570;SDS011;16814;52.118;11.436;2023-03-21T11:46:25;8.85;;;5.05;;
29570;SDS011;16814;52.118;11.436;2023-03-21T11:48:53;9.18;;;5.05;;
29570;SDS011;16814;52.118;11.436;2023-03-21T11:51:28;7.80;;;5.27;;
29570;SDS011;16814;52.118;11.436;2023-03-21T11:54:03;13.60;;;6.93;;
29570;SDS011;16814;52.118;11.436;2023-03-21T11:56:51;25.08;;;13.20;;
29570;SDS011;16814;52.118;11.436;2023-03-21T11:59:28;11.47;;;6.67;;
29570;SDS011;16814;52.118;11.436;2023-03-21T12:04:52;11.10;;;6.50;;
29570;SDS011;16814;52.118;11.436;2023-03-21T12:13:00;7.82;;;5.35;;
29570;SDS011;16814;52.118;11.436;2023-03-21T12:15:40;8.03;;;5.10;;
29570;SDS011;16814;52.118;11.436;2023-03-21T12:26:57;9.10;;;5.03;;
29570;SDS011;16814;52.118;11.436;2023-03-21T12:29:47;8.00;;;4.93;;
29570;SDS011;16814;52.118;11.436;2023-03-21T12:35:20;8.03;;;5.27;;
29570;SDS011;16814;52.118;11.436;2023-03-21T12:45:52;11.43;;;5.47;;
29570;SDS011;16814;52.118;11.436;2023-03-21T12:51:12;10.50;;;5.88;;
29570;SDS011;16814;52.118;11.436;2023-03-21T12:56:40;12.00;;;5.88;;
29570;SDS011;16814;52.118;11.436;2023-03-21T12:59:19;9.20;;;5.20;;
29570;SDS011;16814;52.118;11.436;2023-03-21T13:01:57;8.67;;;6.00;;
29570;SDS011;16814;52.118;11.436;2023-03-21T13:07:00;10.90;;;6.18;;
29570;SDS011;16814;52.118;11.436;2023-03-21T13:09:33;13.07;;;6.55;;
29570;SDS011;16814;52.118;11.436;2023-03-21T13:12:02;12.68;;;6.68;;
29570;SDS011;16814;52.118;11.436;2023-03-21T13:17:37;10.67;;;6.50;;
29570;SDS011;16814;52.118;11.436;2023-03-21T13:20:13;12.07;;;6.28;;
29570;SDS011;16814;52.118;11.436;2023-03-21T13:22:59;13.05;;;6.35;;
29570;SDS011;16814;52.118;11.436;2023-03-21T13:25:25;11.48;;;6.47;;
29570;SDS011;16814;52.118;11.436;2023-03-21T13:27:52;13.03;;;7.43;;
29570;SDS011;16814;52.118;11.436;2023-03-21T13:30:24;12.50;;;7.03;;
29570;SDS011;16814;52.118;11.436;2023-03-21T13:33:02;12.45;;;7.10;;
29570;SDS011;16814;52.118;11.436;2023-03-21T13:35:41;16.88;;;8.02;;
29570;SDS011;16814;52.118;11.436;2023-03-21T13:38:21;14.23;;;7.72;;
29570;SDS011;16814;52.118;11.436;2023-03-21T13:41:11;17.10;;;7.88;;
29570;SDS011;16814;52.118;11.436;2023-03-21T13:46:08;16.43;;;7.70;;
29570;SDS011;16814;52.118;11.436;2023-03-21T13:59:11;12.73;;;7.68;;
29570;SDS011;16814;52.118;11.436;2023-03-21T14:02:18;15.77;;;8.18;;
29570;SDS011;16814;52.118;11.436;2023-03-21T14:04:36;14.23;;;7.53;;
29570;SDS011;16814;52.118;11.436;2023-03-21T14:07:05;16.80;;;8.45;;
29570;SDS011;16814;52.118;11.436;2023-03-21T14:09:36;21.25;;;9.95;;
29570;SDS011;16814;52.118;11.436;2023-03-21T14:12:12;20.88;;;9.57;;
29570;SDS011;16814;52.118;11.436;2023-03-21T14:14:42;21.85;;;10.60;;
29570;SDS011;16814;52.118;11.436;2023-03-21T14:17:21;19.40;;;9.65;;
29570;SDS011;16814;52.118;11.436;2023-03-21T14:19:51;20.47;;;10.00;;
29570;SDS011;16814;52.118;11.436;2023-03-21T14:22:18;21.25;;;9.48;;
29570;SDS011;16814;52.118;11.436;2023-03-21T14:25:02;19.40;;;10.23;;
29570;SDS011;16814;52.118;11.436;2023-03-21T14:27:31;17.90;;;9.90;;
29570;SDS011;16814;52.118;11.436;2023-03-21T14:29:58;21.17;;;11.60;;
29570;SDS011;16814;52.118;11.436;2023-03-21T14:32:26;20.33;;;9.98;;
29570;SDS011;16814;52.118;11.436;2023-03-21T14:34:54;22.13;;;10.63;;
29570;SDS011;16814;52.118;11.436;2023-03-21T14:37:25;15.25;;;8.98;;
29570;SDS011;16814;52.118;11.436;2023-03-21T14:39:56;16.70;;;9.57;;
29570;SDS011;16814;52.118;11.436;2023-03-21T14:42:24;17.17;;;9.40;;
29570;SDS011;16814;52.118;11.436;2023-03-21T14:44:50;19.90;;;9.65;;
29570;SDS011;16814;52.118;11.436;2023-03-21T14:47:16;20.80;;;9.60;;
29570;SDS011;16814;52.118;11.436;2023-03-21T14:49:47;17.63;;;9.73;;
29570;SDS011;16814;52.118;11.436;2023-03-21T14:52:47;20.90;;;9.23;;
29570;SDS011;16814;52.118;11.436;2023-03-21T14:55:13;15.40;;;9.40;;
29570;SDS011;16814;52.118;11.436;2023-03-21T14:57:40;18.60;;;9.25;;
29570;SDS011;16814;52.118;11.436;2023-03-21T15:00:07;16.38;;;8.80;;
29570;SDS011;16814;52.118;11.436;2023-03-21T15:02:46;14.60;;;8.50;;
29570;SDS011;16814;52.118;11.436;2023-03-21T15:05:14;21.35;;;10.10;;
29570;SDS011;16814;52.118;11.436;2023-03-21T15:07:53;20.13;;;9.50;;
29570;SDS011;16814;52.118;11.436;2023-03-21T15:10:22;21.35;;;9.40;;
29570;SDS011;16814;52.118;11.436;2023-03-21T15:12:54;19.23;;;8.98;;
29570;SDS011;16814;52.118;11.436;2023-03-21T15:15:22;17.88;;;9.30;;
29570;SDS011;16814;52.118;11.436;2023-03-21T15:17:50;18.88;;;9.15;;
29570;SDS011;16814;52.118;11.436;2023-03-21T15:20:18;17.67;;;9.17;;
29570;SDS011;16814;52.118;11.436;2023-03-21T15:22:47;18.17;;;9.23;;
29570;SDS011;16814;52.118;11.436;2023-03-21T15:25:17;18.23;;;9.05;;
29570;SDS011;16814;52.118;11.436;2023-03-21T15:27:56;18.95;;;10.45;;
29570;SDS011;16814;52.118;11.436;2023-03-21T15:30:23;22.03;;;9.77;;
29570;SDS011;16814;52.118;11.436;2023-03-21T15:32:52;22.13;;;9.88;;
29570;SDS011;16814;52.118;11.436;2023-03-21T15:35:20;20.55;;;9.55;;
29570;SDS011;16814;52.118;11.436;2023-03-21T15:37:51;19.83;;;9.73;;
29570;SDS011;16814;52.118;11.436;2023-03-21T15:40:25;18.92;;;9.90;;
29570;SDS011;16814;52.118;11.436;2023-03-21T15:43:03;20.87;;;9.67;;
29570;SDS011;16814;52.118;11.436;2023-03-21T15:45:30;18.03;;;9.73;;
29570;SDS011;16814;52.118;11.436;2023-03-21T15:48:00;22.13;;;10.30;;
29570;SDS011;16814;52.118;11.436;2023-03-21T15:50:34;17.23;;;9.73;;
29570;SDS011;16814;52.118;11.436;2023-03-21T15:53:04;16.40;;;9.63;;
29570;SDS011;16814;52.118;11.436;2023-03-21T15:55:52;19.55;;;10.23;;
29570;SDS011;16814;52.118;11.436;2023-03-21T15:58:21;20.88;;;10.40;;
29570;SDS011;16814;52.118;11.436;2023-03-21T16:00:50;22.57;;;11.63;;